Aviation Digital Data Service (ADDS)

Output produced by METARs form (2351 UTC 15 February 2019)
found at http://www.aviationweather.gov/metar/data/
 
METAR text: EGPF 152320Z AUTO 20020KT 9999 BKN013 OVC036 11/09 Q1011
Conditions at: EGPF (GLASGOW AIRPORT , GB) observed 2320 UTC 15 February 2019
Temperature: 11.0°C (52°F)
Dewpoint: 9.0°C (48°F) [RH = 87%]
Pressure (altimeter): 29.85 inches Hg (1011.0 mb)
Winds: from the SSW (200 degrees) at 23 MPH (20 knots; 10.3 m/s)
Visibility: 6 or more miles (10+ km)
Ceiling: 1300 feet AGL
Clouds: broken clouds at 1300 feet AGL
overcast cloud deck at 3600 feet AGL
Weather: no significant weather observed at this time

METAR text: EGPF 152250Z AUTO 20019G31KT 9999 BKN012 OVC028 11/09 Q1011
Conditions at: EGPF (GLASGOW AIRPORT , GB) observed 2250 UTC 15 February 2019
Temperature: 11.0°C (52°F)
Dewpoint: 9.0°C (48°F) [RH = 87%]
Pressure (altimeter): 29.85 inches Hg (1011.0 mb)
Winds: from the SSW (200 degrees) at 22 MPH (19 knots; 9.8 m/s)
gusting to 36 MPH (31 knots; 15.9 m/s)
Visibility: 6 or more miles (10+ km)
Ceiling: 1200 feet AGL
Clouds: broken clouds at 1200 feet AGL
overcast cloud deck at 2800 feet AGL
Weather: no significant weather observed at this time

METAR text: EGPF 152220Z AUTO 19019KT 9999 OVC011 11/09 Q1011
Conditions at: EGPF (GLASGOW AIRPORT , GB) observed 2220 UTC 15 February 2019
Temperature: 11.0°C (52°F)
Dewpoint: 9.0°C (48°F) [RH = 87%]
Pressure (altimeter): 29.85 inches Hg (1011.0 mb)
Winds: from the S (190 degrees) at 22 MPH (19 knots; 9.8 m/s)
Visibility: 6 or more miles (10+ km)
Ceiling: 1100 feet AGL
Clouds: overcast cloud deck at 1100 feet AGL
Weather: no significant weather observed at this time

METAR text: EGPF 152150Z AUTO 18014G24KT 6000 -RA BKN013/// OVC023/// //////CB 10/09 Q1011
Conditions at: EGPF (GLASGOW AIRPORT , GB) observed 2150 UTC 15 February 2019
Temperature: 10.0°C (50°F)
Dewpoint: 9.0°C (48°F) [RH = 93%]
Pressure (altimeter): 29.85 inches Hg (1011.0 mb)
Winds: from the S (180 degrees) at 16 MPH (14 knots; 7.2 m/s)
gusting to 28 MPH (24 knots; 12.3 m/s)
Visibility: 4 miles ( 6 km)
Ceiling: 1300 feet AGL
Clouds: broken clouds at 1300 feet AGL
overcast cloud deck at 2300 feet AGL
Weather: -RA  (light rain)

METAR text: EGPF 152120Z AUTO 18018KT 7000 -RA BKN022/// //////TCU 10/08 Q1011 RERA
Conditions at: EGPF (GLASGOW AIRPORT , GB) observed 2120 UTC 15 February 2019
Temperature: 10.0°C (50°F)
Dewpoint: 8.0°C (46°F) [RH = 87%]
Pressure (altimeter): 29.85 inches Hg (1011.0 mb)
Winds: from the S (180 degrees) at 21 MPH (18 knots; 9.3 m/s)
Visibility: 4 miles ( 7 km)
Ceiling: 2200 feet AGL
Clouds: broken clouds at 2200 feet AGL
Weather: -RA  (light rain)

METAR text: EGPF 152050Z AUTO 17009KT 9999 -RA OVC021/// //////CB 10/07 Q1012
Conditions at: EGPF (GLASGOW AIRPORT , GB) observed 2050 UTC 15 February 2019
Temperature: 10.0°C (50°F)
Dewpoint: 7.0°C (45°F) [RH = 82%]
Pressure (altimeter): 29.88 inches Hg (1012.0 mb)
Winds: from the S (170 degrees) at 10 MPH (9 knots; 4.6 m/s)
Visibility: 6 or more miles (10+ km)
Ceiling: 2100 feet AGL
Clouds: overcast cloud deck at 2100 feet AGL
Weather: -RA  (light rain)

METAR text: EGPF 152020Z AUTO 12004KT 090V190 9999 OVC021/// //////TCU 10/06 Q1012
Conditions at: EGPF (GLASGOW AIRPORT , GB) observed 2020 UTC 15 February 2019
Temperature: 10.0°C (50°F)
Dewpoint: 6.0°C (43°F) [RH = 76%]
Pressure (altimeter): 29.88 inches Hg (1012.0 mb)
Winds: from the ESE (120 degrees) at 5 MPH (4 knots; 2.1 m/s)
Visibility: 6 or more miles (10+ km)
Ceiling: 2100 feet AGL
Clouds: overcast cloud deck at 2100 feet AGL
Weather: no significant weather observed at this time

METAR text: EGPF 151950Z AUTO VRB02KT 9999 OVC023 10/06 Q1013
Conditions at: EGPF (GLASGOW AIRPORT , GB) observed 1950 UTC 15 February 2019
Temperature: 10.0°C (50°F)
Dewpoint: 6.0°C (43°F) [RH = 76%]
Pressure (altimeter): 29.91 inches Hg (1013.0 mb)
Winds: variable direction winds at 2 MPH (2 knots; 1.0 m/s)
Visibility: 6 or more miles (10+ km)
Ceiling: 2300 feet AGL
Clouds: overcast cloud deck at 2300 feet AGL
Weather: no significant weather observed at this time

METAR text: EGPF 151920Z AUTO VRB03KT 9999 BKN023 OVC033 10/06 Q1014
Conditions at: EGPF (GLASGOW AIRPORT , GB) observed 1920 UTC 15 February 2019
Temperature: 10.0°C (50°F)
Dewpoint: 6.0°C (43°F) [RH = 76%]
Pressure (altimeter): 29.94 inches Hg (1014.0 mb)
Winds: variable direction winds at 3 MPH (3 knots; 1.5 m/s)
Visibility: 6 or more miles (10+ km)
Ceiling: 2300 feet AGL
Clouds: broken clouds at 2300 feet AGL
overcast cloud deck at 3300 feet AGL
Weather: no significant weather observed at this time

METAR text: EGPF 151850Z AUTO 12004KT 080V170 9999 FEW027 OVC034 09/06 Q1014
Conditions at: EGPF (GLASGOW AIRPORT , GB) observed 1850 UTC 15 February 2019
Temperature: 9.0°C (48°F)
Dewpoint: 6.0°C (43°F) [RH = 81%]
Pressure (altimeter): 29.94 inches Hg (1014.0 mb)
Winds: from the ESE (120 degrees) at 5 MPH (4 knots; 2.1 m/s)
Visibility: 6 or more miles (10+ km)
Ceiling: 3400 feet AGL
Clouds: few clouds at 2700 feet AGL
overcast cloud deck at 3400 feet AGL
Weather: no significant weather observed at this time

METAR text: EGPF 151820Z AUTO VRB01KT 9999 FEW026 OVC035 09/06 Q1014
Conditions at: EGPF (GLASGOW AIRPORT , GB) observed 1820 UTC 15 February 2019
Temperature: 9.0°C (48°F)
Dewpoint: 6.0°C (43°F) [RH = 81%]
Pressure (altimeter): 29.94 inches Hg (1014.0 mb)
Winds: variable direction winds at 1 MPH (1 knots; 0.5 m/s)
Visibility: 6 or more miles (10+ km)
Ceiling: 3500 feet AGL
Clouds: few clouds at 2600 feet AGL
overcast cloud deck at 3500 feet AGL
Weather: no significant weather observed at this time

METAR text: EGPF 151750Z AUTO 25004KT 190V290 9999 OVC037 10/06 Q1015
Conditions at: EGPF (GLASGOW AIRPORT , GB) observed 1750 UTC 15 February 2019
Temperature: 10.0°C (50°F)
Dewpoint: 6.0°C (43°F) [RH = 76%]
Pressure (altimeter): 29.97 inches Hg (1015.0 mb)
Winds: from the WSW (250 degrees) at 5 MPH (4 knots; 2.1 m/s)
Visibility: 6 or more miles (10+ km)
Ceiling: 3700 feet AGL
Clouds: overcast cloud deck at 3700 feet AGL
Weather: no significant weather observed at this time

METAR text: EGPF 151720Z AUTO VRB02KT 9999 OVC039 10/06 Q1015
Conditions at: EGPF (GLASGOW AIRPORT , GB) observed 1720 UTC 15 February 2019
Temperature: 10.0°C (50°F)
Dewpoint: 6.0°C (43°F) [RH = 76%]
Pressure (altimeter): 29.97 inches Hg (1015.0 mb)
Winds: variable direction winds at 2 MPH (2 knots; 1.0 m/s)
Visibility: 6 or more miles (10+ km)
Ceiling: 3900 feet AGL
Clouds: overcast cloud deck at 3900 feet AGL
Weather: no significant weather observed at this time

METAR text: EGPF 151650Z AUTO 30004KT 260V330 9999 BKN042 09/06 Q1015
Conditions at: EGPF (GLASGOW AIRPORT , GB) observed 1650 UTC 15 February 2019
Temperature: 9.0°C (48°F)
Dewpoint: 6.0°C (43°F) [RH = 81%]
Pressure (altimeter): 29.97 inches Hg (1015.0 mb)
Winds: from the WNW (300 degrees) at 5 MPH (4 knots; 2.1 m/s)
Visibility: 6 or more miles (10+ km)
Ceiling: 4200 feet AGL
Clouds: broken clouds at 4200 feet AGL
Weather: no significant weather observed at this time

METAR text: EGPF 151620Z AUTO 28006KT 9999 NCD 09/06 Q1015
Conditions at: EGPF (GLASGOW AIRPORT , GB) observed 1620 UTC 15 February 2019
Temperature: 9.0°C (48°F)
Dewpoint: 6.0°C (43°F) [RH = 81%]
Pressure (altimeter): 29.97 inches Hg (1015.0 mb)
Winds: from the W (280 degrees) at 7 MPH (6 knots; 3.1 m/s)
Visibility: 6 or more miles (10+ km)
Ceiling: at least 12,000 feet AGL
Clouds: sky clear below 12,000 feet AGL
Weather: no significant weather observed at this time

METAR text: EGPF 151550Z AUTO 25005KT 190V300 9999 NCD 11/06 Q1015
Conditions at: EGPF (GLASGOW AIRPORT , GB) observed 1550 UTC 15 February 2019
Temperature: 11.0°C (52°F)
Dewpoint: 6.0°C (43°F) [RH = 71%]
Pressure (altimeter): 29.97 inches Hg (1015.0 mb)
Winds: from the WSW (250 degrees) at 6 MPH (5 knots; 2.6 m/s)
Visibility: 6 or more miles (10+ km)
Ceiling: at least 12,000 feet AGL
Clouds: sky clear below 12,000 feet AGL
Weather: no significant weather observed at this time

METAR text: EGPF 151520Z AUTO 22007KT 180V270 9999 NCD 12/06 Q1015
Conditions at: EGPF (GLASGOW AIRPORT , GB) observed 1520 UTC 15 February 2019
Temperature: 12.0°C (54°F)
Dewpoint: 6.0°C (43°F) [RH = 67%]
Pressure (altimeter): 29.97 inches Hg (1015.0 mb)
Winds: from the SW (220 degrees) at 8 MPH (7 knots; 3.6 m/s)
Visibility: 6 or more miles (10+ km)
Ceiling: at least 12,000 feet AGL
Clouds: sky clear below 12,000 feet AGL
Weather: no significant weather observed at this time

METAR text: EGPF 151450Z AUTO 20010KT 170V250 9999 NCD 12/06 Q1016
Conditions at: EGPF (GLASGOW AIRPORT , GB) observed 1450 UTC 15 February 2019
Temperature: 12.0°C (54°F)
Dewpoint: 6.0°C (43°F) [RH = 67%]
Pressure (altimeter): 30.00 inches Hg (1016.0 mb)
Winds: from the SSW (200 degrees) at 12 MPH (10 knots; 5.1 m/s)
Visibility: 6 or more miles (10+ km)
Ceiling: at least 12,000 feet AGL
Clouds: sky clear below 12,000 feet AGL
Weather: no significant weather observed at this time

METAR text: EGPF 151420Z AUTO VRB02KT 9999 NCD 12/06 Q1016
Conditions at: EGPF (GLASGOW AIRPORT , GB) observed 1420 UTC 15 February 2019
Temperature: 12.0°C (54°F)
Dewpoint: 6.0°C (43°F) [RH = 67%]
Pressure (altimeter): 30.00 inches Hg (1016.0 mb)
Winds: variable direction winds at 2 MPH (2 knots; 1.0 m/s)
Visibility: 6 or more miles (10+ km)
Ceiling: at least 12,000 feet AGL
Clouds: sky clear below 12,000 feet AGL
Weather: no significant weather observed at this time

METAR text: EGPF 151350Z AUTO VRB03KT 9999 NCD 11/06 Q1017
Conditions at: EGPF (GLASGOW AIRPORT , GB) observed 1350 UTC 15 February 2019
Temperature: 11.0°C (52°F)
Dewpoint: 6.0°C (43°F) [RH = 71%]
Pressure (altimeter): 30.03 inches Hg (1017.0 mb)
Winds: variable direction winds at 3 MPH (3 knots; 1.5 m/s)
Visibility: 6 or more miles (10+ km)
Ceiling: at least 12,000 feet AGL
Clouds: sky clear below 12,000 feet AGL
Weather: no significant weather observed at this time

METAR text: EGPF 151320Z AUTO VRB01KT 9999 NCD 11/05 Q1017
Conditions at: EGPF (GLASGOW AIRPORT , GB) observed 1320 UTC 15 February 2019
Temperature: 11.0°C (52°F)
Dewpoint: 5.0°C (41°F) [RH = 66%]
Pressure (altimeter): 30.03 inches Hg (1017.0 mb)
Winds: variable direction winds at 1 MPH (1 knots; 0.5 m/s)
Visibility: 6 or more miles (10+ km)
Ceiling: at least 12,000 feet AGL
Clouds: sky clear below 12,000 feet AGL
Weather: no significant weather observed at this time

METAR text: EGPF 151250Z AUTO VRB03KT 9999 NCD 10/05 Q1018
Conditions at: EGPF (GLASGOW AIRPORT , GB) observed 1250 UTC 15 February 2019
Temperature: 10.0°C (50°F)
Dewpoint: 5.0°C (41°F) [RH = 71%]
Pressure (altimeter): 30.06 inches Hg (1018.0 mb)
Winds: variable direction winds at 3 MPH (3 knots; 1.5 m/s)
Visibility: 6 or more miles (10+ km)
Ceiling: at least 12,000 feet AGL
Clouds: sky clear below 12,000 feet AGL
Weather: no significant weather observed at this time

METAR text: EGPF 151220Z AUTO VRB02KT 9999 NCD 09/04 Q1018
Conditions at: EGPF (GLASGOW AIRPORT , GB) observed 1220 UTC 15 February 2019
Temperature: 9.0°C (48°F)
Dewpoint: 4.0°C (39°F) [RH = 71%]
Pressure (altimeter): 30.06 inches Hg (1018.0 mb)
Winds: variable direction winds at 2 MPH (2 knots; 1.0 m/s)
Visibility: 6 or more miles (10+ km)
Ceiling: at least 12,000 feet AGL
Clouds: sky clear below 12,000 feet AGL
Weather: no significant weather observed at this time

METAR text: EGPF 151150Z AUTO VRB02KT 9999 NCD 07/04 Q1019
Conditions at: EGPF (GLASGOW AIRPORT , GB) observed 1150 UTC 15 February 2019
Temperature: 7.0°C (45°F)
Dewpoint: 4.0°C (39°F) [RH = 81%]
Pressure (altimeter): 30.09 inches Hg (1019.0 mb)
Winds: variable direction winds at 2 MPH (2 knots; 1.0 m/s)
Visibility: 6 or more miles (10+ km)
Ceiling: at least 12,000 feet AGL
Clouds: sky clear below 12,000 feet AGL
Weather: no significant weather observed at this time

METAR text: EGPF 151120Z AUTO VRB02KT 9000 NCD 06/04 Q1019
Conditions at: EGPF (GLASGOW AIRPORT , GB) observed 1120 UTC 15 February 2019
Temperature: 6.0°C (43°F)
Dewpoint: 4.0°C (39°F) [RH = 87%]
Pressure (altimeter): 30.09 inches Hg (1019.0 mb)
Winds: variable direction winds at 2 MPH (2 knots; 1.0 m/s)
Visibility: 6 miles ( 9 km)
Ceiling: at least 12,000 feet AGL
Clouds: sky clear below 12,000 feet AGL
Weather: no significant weather observed at this time

METAR text: EGPF 151050Z AUTO VRB02KT 7000 NCD 03/03 Q1020
Conditions at: EGPF (GLASGOW AIRPORT , GB) observed 1050 UTC 15 February 2019
Temperature: 3.0°C (37°F)
Dewpoint: 3.0°C (37°F) [RH = 100%]
Pressure (altimeter): 30.12 inches Hg (1020.0 mb)
Winds: variable direction winds at 2 MPH (2 knots; 1.0 m/s)
Visibility: 4 miles ( 7 km)
Ceiling: at least 12,000 feet AGL
Clouds: sky clear below 12,000 feet AGL
Weather: no significant weather observed at this time

METAR text: EGPF 151020Z VRB01KT 7000 NSC 02/02 Q1020 RERA
Conditions at: EGPF (GLASGOW AIRPORT , GB) observed 1020 UTC 15 February 2019
Temperature: 2.0°C (36°F)
Dewpoint: 2.0°C (36°F) [RH = 100%]
Pressure (altimeter): 30.12 inches Hg (1020.0 mb)
Winds: variable direction winds at 1 MPH (1 knots; 0.5 m/s)
Visibility: 4 miles ( 7 km)
Ceiling: at least 12,000 feet AGL
Clouds: sky clear below 12,000 feet AGL
Weather: no significant weather observed at this time

METAR text: EGPF 150950Z AUTO VRB03KT 3900 BR NCD M00/M00 Q1021
Conditions at: EGPF (GLASGOW AIRPORT , GB) observed 0950 UTC 15 February 2019
Temperature: 0.0°C (32°F)
Dewpoint: 0.0°C (32°F) [RH = 100%]
Pressure (altimeter): 30.15 inches Hg (1021.0 mb)
Winds: variable direction winds at 3 MPH (3 knots; 1.5 m/s)
Visibility: 2.42 miles (3.89 km)
Ceiling: at least 12,000 feet AGL
Clouds: sky clear below 12,000 feet AGL
Weather: BR  (mist)

METAR text: EGPF 150920Z AUTO 26004KT 200V290 3500 BR NCD M01/M01 Q1020
Conditions at: EGPF (GLASGOW AIRPORT , GB) observed 0920 UTC 15 February 2019
Temperature: -1.0°C (30°F)
Dewpoint: -1.0°C (30°F) [RH = 100%]
Pressure (altimeter): 30.12 inches Hg (1020.0 mb)
Winds: from the W (260 degrees) at 5 MPH (4 knots; 2.1 m/s)
Visibility: 2.17 miles (3.49 km)
Ceiling: at least 12,000 feet AGL
Clouds: sky clear below 12,000 feet AGL
Weather: BR  (mist)

METAR text: EGPF 150850Z AUTO VRB03KT 3400 BR NCD M02/M02 Q1020
Conditions at: EGPF (GLASGOW AIRPORT , GB) observed 0850 UTC 15 February 2019
Temperature: -2.0°C (28°F)
Dewpoint: -2.0°C (28°F) [RH = 100%]
Pressure (altimeter): 30.12 inches Hg (1020.0 mb)
Winds: variable direction winds at 3 MPH (3 knots; 1.5 m/s)
Visibility: 2.11 miles (3.40 km)
Ceiling: at least 12,000 feet AGL
Clouds: sky clear below 12,000 feet AGL
Weather: BR  (mist)

METAR text: EGPF 150820Z AUTO VRB03KT 3200 BR NCD M02/M02 Q1021
Conditions at: EGPF (GLASGOW AIRPORT , GB) observed 0820 UTC 15 February 2019
Temperature: -2.0°C (28°F)
Dewpoint: -2.0°C (28°F) [RH = 100%]
Pressure (altimeter): 30.15 inches Hg (1021.0 mb)
Winds: variable direction winds at 3 MPH (3 knots; 1.5 m/s)
Visibility: 1.99 miles (3.20 km)
Ceiling: at least 12,000 feet AGL
Clouds: sky clear below 12,000 feet AGL
Weather: BR  (mist)

METAR text: EGPF 150750Z AUTO VRB01KT 2800 BR NCD M03/M03 Q1021
Conditions at: EGPF (GLASGOW AIRPORT , GB) observed 0750 UTC 15 February 2019
Temperature: -3.0°C (27°F)
Dewpoint: -3.0°C (27°F) [RH = 100%]
Pressure (altimeter): 30.15 inches Hg (1021.0 mb)
Winds: variable direction winds at 1 MPH (1 knots; 0.5 m/s)
Visibility: 1.74 miles (2.80 km)
Ceiling: at least 12,000 feet AGL
Clouds: sky clear below 12,000 feet AGL
Weather: BR  (mist)

METAR text: EGPF 150720Z AUTO 26002KT 2200 BR NCD M04/M04 Q1021
Conditions at: EGPF (GLASGOW AIRPORT , GB) observed 0720 UTC 15 February 2019
Temperature: -4.0°C (25°F)
Dewpoint: -4.0°C (25°F) [RH = 100%]
Pressure (altimeter): 30.15 inches Hg (1021.0 mb)
Winds: from the W (260 degrees) at 2 MPH (2 knots; 1.0 m/s)
Visibility: 1.37 miles (2.20 km)
Ceiling: at least 12,000 feet AGL
Clouds: sky clear below 12,000 feet AGL
Weather: BR  (mist)

METAR text: EGPF 150650Z AUTO 05004KT 020V090 3000 BR NCD M02/M02 Q1021
Conditions at: EGPF (GLASGOW AIRPORT , GB) observed 0650 UTC 15 February 2019
Temperature: -2.0°C (28°F)
Dewpoint: -2.0°C (28°F) [RH = 100%]
Pressure (altimeter): 30.15 inches Hg (1021.0 mb)
Winds: from the NE (50 degrees) at 5 MPH (4 knots; 2.1 m/s)
Visibility: 1.86 miles (2.99 km)
Ceiling: at least 12,000 feet AGL
Clouds: sky clear below 12,000 feet AGL
Weather: BR  (mist)

METAR text: EGPF 150620Z AUTO VRB02KT 3500 BR NCD M02/M02 Q1021
Conditions at: EGPF (GLASGOW AIRPORT , GB) observed 0620 UTC 15 February 2019
Temperature: -2.0°C (28°F)
Dewpoint: -2.0°C (28°F) [RH = 100%]
Pressure (altimeter): 30.15 inches Hg (1021.0 mb)
Winds: variable direction winds at 2 MPH (2 knots; 1.0 m/s)
Visibility: 2.17 miles (3.49 km)
Ceiling: at least 12,000 feet AGL
Clouds: sky clear below 12,000 feet AGL
Weather: BR  (mist)

METAR text: EGPF 150550Z AUTO 11004KT 0700 R23/P1500 FZFG SCT003 M02/M02 Q1021
Conditions at: EGPF (GLASGOW AIRPORT , GB) observed 0550 UTC 15 February 2019
Temperature: -2.0°C (28°F)
Dewpoint: -2.0°C (28°F) [RH = 100%]
Pressure (altimeter): 30.15 inches Hg (1021.0 mb)
Winds: from the ESE (110 degrees) at 5 MPH (4 knots; 2.1 m/s)
Visibility: 0.43 miles (0.69 km)
Ceiling: at least 12,000 feet AGL
Clouds: scattered clouds at 300 feet AGL
Weather: FZFG  (freezing fog)

METAR text: EGPF 150520Z AUTO VRB02KT 0150 FZFG VV/// M02/M02 Q1022
Conditions at: EGPF (GLASGOW AIRPORT , GB) observed 0520 UTC 15 February 2019
Temperature: -2.0°C (28°F)
Dewpoint: -2.0°C (28°F) [RH = 100%]
Pressure (altimeter): 30.18 inches Hg (1022.0 mb)
Winds: variable direction winds at 2 MPH (2 knots; 1.0 m/s)
Visibility: 0.09 miles (0.14 km)
Ceiling: indefinite ceiling with vertical visibility of 0 feet AGL
Clouds: obscured sky
Weather: FZFG  (freezing fog)

METAR text: EGPF 150450Z AUTO VRB03KT 0300 FZFG VV/// M03/M03 Q1022
Conditions at: EGPF (GLASGOW AIRPORT , GB) observed 0450 UTC 15 February 2019
Temperature: -3.0°C (27°F)
Dewpoint: -3.0°C (27°F) [RH = 100%]
Pressure (altimeter): 30.18 inches Hg (1022.0 mb)
Winds: variable direction winds at 3 MPH (3 knots; 1.5 m/s)
Visibility: 0.19 miles (0.31 km)
Ceiling: indefinite ceiling with vertical visibility of 0 feet AGL
Clouds: obscured sky
Weather: FZFG  (freezing fog)

METAR text: EGPF 150420Z AUTO VRB01KT 0300 FZFG VV/// M02/M02 Q1022
Conditions at: EGPF (GLASGOW AIRPORT , GB) observed 0420 UTC 15 February 2019
Temperature: -2.0°C (28°F)
Dewpoint: -2.0°C (28°F) [RH = 100%]
Pressure (altimeter): 30.18 inches Hg (1022.0 mb)
Winds: variable direction winds at 1 MPH (1 knots; 0.5 m/s)
Visibility: 0.19 miles (0.31 km)
Ceiling: indefinite ceiling with vertical visibility of 0 feet AGL
Clouds: obscured sky
Weather: FZFG  (freezing fog)

METAR text: EGPF 150350Z AUTO 08001KT 0200 FZFG VV/// M02/M02 Q1022
Conditions at: EGPF (GLASGOW AIRPORT , GB) observed 0350 UTC 15 February 2019
Temperature: -2.0°C (28°F)
Dewpoint: -2.0°C (28°F) [RH = 100%]
Pressure (altimeter): 30.18 inches Hg (1022.0 mb)
Winds: from the E (80 degrees) at 1 MPH (1 knots; 0.5 m/s)
Visibility: 0.12 miles (0.19 km)
Ceiling: indefinite ceiling with vertical visibility of 0 feet AGL
Clouds: obscured sky
Weather: FZFG  (freezing fog)

METAR text: EGPF 150320Z AUTO 16002KT 0200 FZFG VV/// M03/M03 Q1023
Conditions at: EGPF (GLASGOW AIRPORT , GB) observed 0320 UTC 15 February 2019
Temperature: -3.0°C (27°F)
Dewpoint: -3.0°C (27°F) [RH = 100%]
Pressure (altimeter): 30.21 inches Hg (1023.0 mb)
Winds: from the SSE (160 degrees) at 2 MPH (2 knots; 1.0 m/s)
Visibility: 0.12 miles (0.19 km)
Ceiling: indefinite ceiling with vertical visibility of 0 feet AGL
Clouds: obscured sky
Weather: FZFG  (freezing fog)

METAR text: EGPF 150250Z AUTO 26002KT 0100 FZFG VV/// M03/M03 Q1023
Conditions at: EGPF (GLASGOW AIRPORT , GB) observed 0250 UTC 15 February 2019
Temperature: -3.0°C (27°F)
Dewpoint: -3.0°C (27°F) [RH = 100%]
Pressure (altimeter): 30.21 inches Hg (1023.0 mb)
Winds: from the W (260 degrees) at 2 MPH (2 knots; 1.0 m/s)
Visibility: 0.06 miles (0.10 km)
Ceiling: indefinite ceiling with vertical visibility of 0 feet AGL
Clouds: obscured sky
Weather: FZFG  (freezing fog)

METAR text: EGPF 150220Z AUTO 23002KT 0150 FZFG VV/// M03/M03 Q1023
Conditions at: EGPF (GLASGOW AIRPORT , GB) observed 0220 UTC 15 February 2019
Temperature: -3.0°C (27°F)
Dewpoint: -3.0°C (27°F) [RH = 100%]
Pressure (altimeter): 30.21 inches Hg (1023.0 mb)
Winds: from the SW (230 degrees) at 2 MPH (2 knots; 1.0 m/s)
Visibility: 0.09 miles (0.14 km)
Ceiling: indefinite ceiling with vertical visibility of 0 feet AGL
Clouds: obscured sky
Weather: FZFG  (freezing fog)

METAR text: EGPF 150150Z AUTO 26002KT 0150 FZFG VV/// M02/M03 Q1024
Conditions at: EGPF (GLASGOW AIRPORT , GB) observed 0150 UTC 15 February 2019
Temperature: -2.0°C (28°F)
Dewpoint: -3.0°C (27°F) [RH = 93%]
Pressure (altimeter): 30.24 inches Hg (1024.0 mb)
Winds: from the W (260 degrees) at 2 MPH (2 knots; 1.0 m/s)
Visibility: 0.09 miles (0.14 km)
Ceiling: indefinite ceiling with vertical visibility of 0 feet AGL
Clouds: obscured sky
Weather: FZFG  (freezing fog)

METAR text: EGPF 150120Z AUTO VRB02KT 0150 FZFG VV/// M02/M02 Q1024
Conditions at: EGPF (GLASGOW AIRPORT , GB) observed 0120 UTC 15 February 2019
Temperature: -2.0°C (28°F)
Dewpoint: -2.0°C (28°F) [RH = 100%]
Pressure (altimeter): 30.24 inches Hg (1024.0 mb)
Winds: variable direction winds at 2 MPH (2 knots; 1.0 m/s)
Visibility: 0.09 miles (0.14 km)
Ceiling: indefinite ceiling with vertical visibility of 0 feet AGL
Clouds: obscured sky
Weather: FZFG  (freezing fog)

METAR text: EGPF 150050Z AUTO 22001KT 0100 FZFG VV/// M01/M01 Q1024
Conditions at: EGPF (GLASGOW AIRPORT , GB) observed 0050 UTC 15 February 2019
Temperature: -1.0°C (30°F)
Dewpoint: -1.0°C (30°F) [RH = 100%]
Pressure (altimeter): 30.24 inches Hg (1024.0 mb)
Winds: from the SW (220 degrees) at 1 MPH (1 knots; 0.5 m/s)
Visibility: 0.06 miles (0.10 km)
Ceiling: indefinite ceiling with vertical visibility of 0 feet AGL
Clouds: obscured sky
Weather: FZFG  (freezing fog)

METAR text: EGPF 150020Z AUTO 28002KT 0200 FZFG BKN002 M00/M00 Q1024
Conditions at: EGPF (GLASGOW AIRPORT , GB) observed 0020 UTC 15 February 2019
Temperature: 0.0°C (32°F)
Dewpoint: 0.0°C (32°F) [RH = 100%]
Pressure (altimeter): 30.24 inches Hg (1024.0 mb)
Winds: from the W (280 degrees) at 2 MPH (2 knots; 1.0 m/s)
Visibility: 0.12 miles (0.19 km)
Ceiling: 200 feet AGL
Clouds: broken clouds at 200 feet AGL
Weather: FZFG  (freezing fog)

METAR text: EGPF 142350Z AUTO 25002KT 0150 FG FEW003 M00/M00 Q1024
Conditions at: EGPF (GLASGOW AIRPORT , GB) observed 2350 UTC 14 February 2019
Temperature: 0.0°C (32°F)
Dewpoint: 0.0°C (32°F) [RH = 100%]
Pressure (altimeter): 30.24 inches Hg (1024.0 mb)
Winds: from the WSW (250 degrees) at 2 MPH (2 knots; 1.0 m/s)
Visibility: 0.09 miles (0.14 km)
Ceiling: at least 12,000 feet AGL
Clouds: few clouds at 300 feet AGL
Weather: FG  (fog)

METAR text: EGPF 142320Z AUTO 28002KT 0250 FG SCT003 01/00 Q1024
Conditions at: EGPF (GLASGOW AIRPORT , GB) observed 2320 UTC 14 February 2019
Temperature: 1.0°C (34°F)
Dewpoint: 0.0°C (32°F) [RH = 93%]
Pressure (altimeter): 30.24 inches Hg (1024.0 mb)
Winds: from the W (280 degrees) at 2 MPH (2 knots; 1.0 m/s)
Visibility: 0.16 miles (0.26 km)
Ceiling: at least 12,000 feet AGL
Clouds: scattered clouds at 300 feet AGL
Weather: FG  (fog)

METAR text: EGPF 142250Z 23003KT 5000 R23/1300 MIFG NSC 01/01 Q1025
Conditions at: EGPF (GLASGOW AIRPORT , GB) observed 2250 UTC 14 February 2019
Temperature: 1.0°C (34°F)
Dewpoint: 1.0°C (34°F) [RH = 100%]
Pressure (altimeter): 30.27 inches Hg (1025.0 mb)
Winds: from the SW (230 degrees) at 3 MPH (3 knots; 1.5 m/s)
Visibility: 3 miles ( 5 km)
Ceiling: at least 12,000 feet AGL
Clouds: sky clear below 12,000 feet AGL
Weather: MIFG  (shallow fog)

METAR text: EGPF 142220Z AUTO VRB01KT 7000 NCD 03/03 Q1025
Conditions at: EGPF (GLASGOW AIRPORT , GB) observed 2220 UTC 14 February 2019
Temperature: 3.0°C (37°F)
Dewpoint: 3.0°C (37°F) [RH = 100%]
Pressure (altimeter): 30.27 inches Hg (1025.0 mb)
Winds: variable direction winds at 1 MPH (1 knots; 0.5 m/s)
Visibility: 4 miles ( 7 km)
Ceiling: at least 12,000 feet AGL
Clouds: sky clear below 12,000 feet AGL
Weather: no significant weather observed at this time

METAR text: EGPF 142150Z VRB02KT 5000 R23/1300 BR NSC 03/02 Q1025
Conditions at: EGPF (GLASGOW AIRPORT , GB) observed 2150 UTC 14 February 2019
Temperature: 3.0°C (37°F)
Dewpoint: 2.0°C (36°F) [RH = 93%]
Pressure (altimeter): 30.27 inches Hg (1025.0 mb)
Winds: variable direction winds at 2 MPH (2 knots; 1.0 m/s)
Visibility: 3 miles ( 5 km)
Ceiling: at least 12,000 feet AGL
Clouds: sky clear below 12,000 feet AGL
Weather: BR  (mist)

METAR text: EGPF 142120Z AUTO VRB01KT 9000 NCD 04/03 Q1025
Conditions at: EGPF (GLASGOW AIRPORT , GB) observed 2120 UTC 14 February 2019
Temperature: 4.0°C (39°F)
Dewpoint: 3.0°C (37°F) [RH = 93%]
Pressure (altimeter): 30.27 inches Hg (1025.0 mb)
Winds: variable direction winds at 1 MPH (1 knots; 0.5 m/s)
Visibility: 6 miles ( 9 km)
Ceiling: at least 12,000 feet AGL
Clouds: sky clear below 12,000 feet AGL
Weather: no significant weather observed at this time

METAR text: EGPF 142050Z AUTO VRB02KT 9999 NCD 05/03 Q1025
Conditions at: EGPF (GLASGOW AIRPORT , GB) observed 2050 UTC 14 February 2019
Temperature: 5.0°C (41°F)
Dewpoint: 3.0°C (37°F) [RH = 87%]
Pressure (altimeter): 30.27 inches Hg (1025.0 mb)
Winds: variable direction winds at 2 MPH (2 knots; 1.0 m/s)
Visibility: 6 or more miles (10+ km)
Ceiling: at least 12,000 feet AGL
Clouds: sky clear below 12,000 feet AGL
Weather: no significant weather observed at this time

METAR text: EGPF 142020Z AUTO VRB03KT 9999 NCD 06/04 Q1025
Conditions at: EGPF (GLASGOW AIRPORT , GB) observed 2020 UTC 14 February 2019
Temperature: 6.0°C (43°F)
Dewpoint: 4.0°C (39°F) [RH = 87%]
Pressure (altimeter): 30.27 inches Hg (1025.0 mb)
Winds: variable direction winds at 3 MPH (3 knots; 1.5 m/s)
Visibility: 6 or more miles (10+ km)
Ceiling: at least 12,000 feet AGL
Clouds: sky clear below 12,000 feet AGL
Weather: no significant weather observed at this time

METAR text: EGPF 141950Z AUTO VRB03KT 9999 NCD 06/04 Q1026
Conditions at: EGPF (GLASGOW AIRPORT , GB) observed 1950 UTC 14 February 2019
Temperature: 6.0°C (43°F)
Dewpoint: 4.0°C (39°F) [RH = 87%]
Pressure (altimeter): 30.30 inches Hg (1026.0 mb)
Winds: variable direction winds at 3 MPH (3 knots; 1.5 m/s)
Visibility: 6 or more miles (10+ km)
Ceiling: at least 12,000 feet AGL
Clouds: sky clear below 12,000 feet AGL
Weather: no significant weather observed at this time

METAR text: EGPF 141920Z AUTO 16003KT 9999 NCD 06/04 Q1026
Conditions at: EGPF (GLASGOW AIRPORT , GB) observed 1920 UTC 14 February 2019
Temperature: 6.0°C (43°F)
Dewpoint: 4.0°C (39°F) [RH = 87%]
Pressure (altimeter): 30.30 inches Hg (1026.0 mb)
Winds: from the SSE (160 degrees) at 3 MPH (3 knots; 1.5 m/s)
Visibility: 6 or more miles (10+ km)
Ceiling: at least 12,000 feet AGL
Clouds: sky clear below 12,000 feet AGL
Weather: no significant weather observed at this time

METAR text: EGPF 141850Z AUTO 21002KT 9999 NCD 06/04 Q1025
Conditions at: EGPF (GLASGOW AIRPORT , GB) observed 1850 UTC 14 February 2019
Temperature: 6.0°C (43°F)
Dewpoint: 4.0°C (39°F) [RH = 87%]
Pressure (altimeter): 30.27 inches Hg (1025.0 mb)
Winds: from the SSW (210 degrees) at 2 MPH (2 knots; 1.0 m/s)
Visibility: 6 or more miles (10+ km)
Ceiling: at least 12,000 feet AGL
Clouds: sky clear below 12,000 feet AGL
Weather: no significant weather observed at this time

METAR text: EGPF 141820Z AUTO 20001KT 9000 NCD 05/04 Q1025
Conditions at: EGPF (GLASGOW AIRPORT , GB) observed 1820 UTC 14 February 2019
Temperature: 5.0°C (41°F)
Dewpoint: 4.0°C (39°F) [RH = 93%]
Pressure (altimeter): 30.27 inches Hg (1025.0 mb)
Winds: from the SSW (200 degrees) at 1 MPH (1 knots; 0.5 m/s)
Visibility: 6 miles ( 9 km)
Ceiling: at least 12,000 feet AGL
Clouds: sky clear below 12,000 feet AGL
Weather: no significant weather observed at this time

METAR text: EGPF 141750Z AUTO VRB01KT 9999 BKN020 07/05 Q1025
Conditions at: EGPF (GLASGOW AIRPORT , GB) observed 1750 UTC 14 February 2019
Temperature: 7.0°C (45°F)
Dewpoint: 5.0°C (41°F) [RH = 87%]
Pressure (altimeter): 30.27 inches Hg (1025.0 mb)
Winds: variable direction winds at 1 MPH (1 knots; 0.5 m/s)
Visibility: 6 or more miles (10+ km)
Ceiling: 2000 feet AGL
Clouds: broken clouds at 2000 feet AGL
Weather: no significant weather observed at this time

METAR text: EGPF 141720Z AUTO 30003KT 9999 BKN020 08/06 Q1025
Conditions at: EGPF (GLASGOW AIRPORT , GB) observed 1720 UTC 14 February 2019
Temperature: 8.0°C (46°F)
Dewpoint: 6.0°C (43°F) [RH = 87%]
Pressure (altimeter): 30.27 inches Hg (1025.0 mb)
Winds: from the WNW (300 degrees) at 3 MPH (3 knots; 1.5 m/s)
Visibility: 6 or more miles (10+ km)
Ceiling: 2000 feet AGL
Clouds: broken clouds at 2000 feet AGL
Weather: no significant weather observed at this time

METAR text: EGPF 141650Z AUTO 22006KT 9999 FEW022 07/05 Q1025
Conditions at: EGPF (GLASGOW AIRPORT , GB) observed 1650 UTC 14 February 2019
Temperature: 7.0°C (45°F)
Dewpoint: 5.0°C (41°F) [RH = 87%]
Pressure (altimeter): 30.27 inches Hg (1025.0 mb)
Winds: from the SW (220 degrees) at 7 MPH (6 knots; 3.1 m/s)
Visibility: 6 or more miles (10+ km)
Ceiling: at least 12,000 feet AGL
Clouds: few clouds at 2200 feet AGL
Weather: no significant weather observed at this time

METAR text: EGPF 141620Z AUTO 21007KT 9999 NCD 09/06 Q1025
Conditions at: EGPF (GLASGOW AIRPORT , GB) observed 1620 UTC 14 February 2019
Temperature: 9.0°C (48°F)
Dewpoint: 6.0°C (43°F) [RH = 81%]
Pressure (altimeter): 30.27 inches Hg (1025.0 mb)
Winds: from the SSW (210 degrees) at 8 MPH (7 knots; 3.6 m/s)
Visibility: 6 or more miles (10+ km)
Ceiling: at least 12,000 feet AGL
Clouds: sky clear below 12,000 feet AGL
Weather: no significant weather observed at this time

METAR text: EGPF 141550Z AUTO 21007KT 9999 BKN021 10/06 Q1025
Conditions at: EGPF (GLASGOW AIRPORT , GB) observed 1550 UTC 14 February 2019
Temperature: 10.0°C (50°F)
Dewpoint: 6.0°C (43°F) [RH = 76%]
Pressure (altimeter): 30.27 inches Hg (1025.0 mb)
Winds: from the SSW (210 degrees) at 8 MPH (7 knots; 3.6 m/s)
Visibility: 6 or more miles (10+ km)
Ceiling: 2100 feet AGL
Clouds: broken clouds at 2100 feet AGL
Weather: no significant weather observed at this time

METAR text: EGPF 141520Z AUTO 21007KT 9999 BKN020 OVC026 10/07 Q1025
Conditions at: EGPF (GLASGOW AIRPORT , GB) observed 1520 UTC 14 February 2019
Temperature: 10.0°C (50°F)
Dewpoint: 7.0°C (45°F) [RH = 82%]
Pressure (altimeter): 30.27 inches Hg (1025.0 mb)
Winds: from the SSW (210 degrees) at 8 MPH (7 knots; 3.6 m/s)
Visibility: 6 or more miles (10+ km)
Ceiling: 2000 feet AGL
Clouds: broken clouds at 2000 feet AGL
overcast cloud deck at 2600 feet AGL
Weather: no significant weather observed at this time

METAR text: EGPF 141450Z AUTO 19007KT 160V260 9999 BKN020 OVC027 11/07 Q1026
Conditions at: EGPF (GLASGOW AIRPORT , GB) observed 1450 UTC 14 February 2019
Temperature: 11.0°C (52°F)
Dewpoint: 7.0°C (45°F) [RH = 76%]
Pressure (altimeter): 30.30 inches Hg (1026.0 mb)
Winds: from the S (190 degrees) at 8 MPH (7 knots; 3.6 m/s)
Visibility: 6 or more miles (10+ km)
Ceiling: 2000 feet AGL
Clouds: broken clouds at 2000 feet AGL
overcast cloud deck at 2700 feet AGL
Weather: no significant weather observed at this time

METAR text: EGPF 141420Z AUTO 21007KT 9999 OVC021 10/07 Q1026
Conditions at: EGPF (GLASGOW AIRPORT , GB) observed 1420 UTC 14 February 2019
Temperature: 10.0°C (50°F)
Dewpoint: 7.0°C (45°F) [RH = 82%]
Pressure (altimeter): 30.30 inches Hg (1026.0 mb)
Winds: from the SSW (210 degrees) at 8 MPH (7 knots; 3.6 m/s)
Visibility: 6 or more miles (10+ km)
Ceiling: 2100 feet AGL
Clouds: overcast cloud deck at 2100 feet AGL
Weather: no significant weather observed at this time

METAR text: EGPF 141350Z AUTO 20007KT 9999 BKN021 OVC026 10/07 Q1026
Conditions at: EGPF (GLASGOW AIRPORT , GB) observed 1350 UTC 14 February 2019
Temperature: 10.0°C (50°F)
Dewpoint: 7.0°C (45°F) [RH = 82%]
Pressure (altimeter): 30.30 inches Hg (1026.0 mb)
Winds: from the SSW (200 degrees) at 8 MPH (7 knots; 3.6 m/s)
Visibility: 6 or more miles (10+ km)
Ceiling: 2100 feet AGL
Clouds: broken clouds at 2100 feet AGL
overcast cloud deck at 2600 feet AGL
Weather: no significant weather observed at this time

METAR text: EGPF 141320Z AUTO 19009KT 9999 BKN020 OVC024 10/06 Q1026
Conditions at: EGPF (GLASGOW AIRPORT , GB) observed 1320 UTC 14 February 2019
Temperature: 10.0°C (50°F)
Dewpoint: 6.0°C (43°F) [RH = 76%]
Pressure (altimeter): 30.30 inches Hg (1026.0 mb)
Winds: from the S (190 degrees) at 10 MPH (9 knots; 4.6 m/s)
Visibility: 6 or more miles (10+ km)
Ceiling: 2000 feet AGL
Clouds: broken clouds at 2000 feet AGL
overcast cloud deck at 2400 feet AGL
Weather: no significant weather observed at this time

METAR text: EGPF 141250Z AUTO 19010KT 9999 OVC020 10/06 Q1026
Conditions at: EGPF (GLASGOW AIRPORT , GB) observed 1250 UTC 14 February 2019
Temperature: 10.0°C (50°F)
Dewpoint: 6.0°C (43°F) [RH = 76%]
Pressure (altimeter): 30.30 inches Hg (1026.0 mb)
Winds: from the S (190 degrees) at 12 MPH (10 knots; 5.1 m/s)
Visibility: 6 or more miles (10+ km)
Ceiling: 2000 feet AGL
Clouds: overcast cloud deck at 2000 feet AGL
Weather: no significant weather observed at this time

METAR text: EGPF 141220Z AUTO 20009KT 9999 OVC020 10/07 Q1027
Conditions at: EGPF (GLASGOW AIRPORT , GB) observed 1220 UTC 14 February 2019
Temperature: 10.0°C (50°F)
Dewpoint: 7.0°C (45°F) [RH = 82%]
Pressure (altimeter): 30.32 inches Hg (1027.0 mb)
Winds: from the SSW (200 degrees) at 10 MPH (9 knots; 4.6 m/s)
Visibility: 6 or more miles (10+ km)
Ceiling: 2000 feet AGL
Clouds: overcast cloud deck at 2000 feet AGL
Weather: no significant weather observed at this time

Forecast for: EGPF (GLASGOW AIRPORT , GB)
Text: TAF EGPF 152302Z 1600/1624 21012KT 9999 SCT025
Forecast period: 0000 UTC 16 February 2019 to 0000 UTC 17 February 2019
Forecast type: FROM: standard forecast or significant change
Winds: from the SSW (210 degrees) at 14 MPH (12 knots; 6.2 m/s)
Visibility: 6 or more miles 10+ km)
Ceiling: at least 12,000 feet AGL
Clouds: scattered clouds at 2500 feet AGL
Weather: no significant weather forecast for this period
Text: TEMPO 1600/1606 22018G28KT
Forecast period: 0000 to 0600 UTC 16 February 2019
Forecast type: TEMPORARY: The following changes expected for less than half the time period
Winds: from the SW (220 degrees) at 21 MPH (18 knots; 9.3 m/s)
gusting to 32 MPH (28 knots; 14.4 m/s)
Visibility: missing
Ceiling: unknown
Clouds: missing
Weather: no significant weather forecast for this period
Text: PROB40
Forecast period: 0000 to 1000 UTC 16 February 2019
Forecast type: TEMPORARY: The following changes expected for less than half the time period
Visibility: missing
Ceiling: 1400 feet AGL
Clouds: broken clouds at 1400 feet AGL
Weather: no significant weather forecast for this period
Text: TEMPO 1600/1610 BKN014
Forecast period: 1900 UTC 16 February 2019 to 0000 UTC 17 February 2019
Forecast type: TEMPORARY: The following changes expected for less than half the time period
Visibility: missing
Ceiling: 800 feet AGL
Clouds: broken clouds at 800 feet AGL
Weather: no significant weather forecast for this period